Terminal Aerodrome Forecast
Issued by NWS Wakefield, VA

Home | Current Version | Previous Version | Text Only | Print | Product List | Glossary On
Versions: 1 2 3 4 5 6 7 8 9 10 11 12
000
FTUS41 KAKQ 052333
TAFRIC
TAF
KRIC 052333Z 0600/0624 19010KT P6SM FEW120 BKN250
     FM060100 19007KT P6SM VCSH BKN100 BKN200
     FM060400 18008KT P6SM SCT110 BKN250
     FM061000 22004KT 3SM BR SCT050 SCT100 BKN250
     FM061400 22010KT 6SM HZ FEW060 BKN250=

USA.gov is the U.S. government's official web portal to all federal, state and local government web resources and services.